createdAt,value
2023-05-05T00:00:32.295Z,88751.00
2023-05-05T00:01:32.331Z,88755.00
2023-05-05T00:02:32.426Z,88755.00
2023-05-05T00:03:32.395Z,88749.00
2023-05-05T00:04:32.440Z,88751.00
2023-05-05T00:05:32.407Z,88749.00
2023-05-05T00:06:32.420Z,88749.00
2023-05-05T00:07:32.443Z,88755.00
2023-05-05T00:08:32.463Z,88747.00
2023-05-05T00:09:32.475Z,88751.00
2023-05-05T00:10:32.515Z,88747.00
2023-05-05T00:11:32.513Z,88749.00
2023-05-05T00:12:32.584Z,88749.00
2023-05-05T00:13:32.582Z,88745.00
2023-05-05T00:14:32.584Z,88747.00
2023-05-05T00:15:32.603Z,88745.00
2023-05-05T00:16:32.650Z,88745.00
2023-05-05T00:17:32.677Z,88747.00
2023-05-05T00:18:32.697Z,88749.00
2023-05-05T00:19:32.718Z,88747.00
2023-05-05T00:20:32.738Z,88745.00
2023-05-05T00:21:32.758Z,88745.00
2023-05-05T00:22:32.784Z,88749.00
2023-05-05T00:23:32.802Z,88749.00
2023-05-05T00:24:32.869Z,88749.00
2023-05-05T00:25:32.853Z,88749.00
2023-05-05T00:26:32.881Z,88751.00
2023-05-05T00:27:32.916Z,88751.00
2023-05-05T00:28:32.940Z,88751.00
2023-05-05T00:29:32.971Z,88749.00
2023-05-05T00:30:32.967Z,88753.00
2023-05-05T00:31:33.062Z,88749.00
2023-05-05T00:32:33.046Z,88751.00
2023-05-05T00:33:33.084Z,88751.00
2023-05-05T00:34:33.059Z,88751.00
2023-05-05T00:35:33.111Z,88751.00
2023-05-05T00:36:33.189Z,88751.00
2023-05-05T00:37:33.146Z,88749.00
2023-05-05T00:38:33.111Z,88749.00
2023-05-05T00:39:33.098Z,88749.00
2023-05-05T00:40:33.177Z,88749.00
2023-05-05T00:41:33.098Z,88747.00
2023-05-05T00:42:33.025Z,88747.00
2023-05-05T00:43:32.994Z,88745.00
2023-05-05T00:44:32.986Z,88747.00
2023-05-05T00:45:32.982Z,88747.00
2023-05-05T00:46:33.013Z,88747.00
2023-05-05T00:47:32.970Z,88751.00
2023-05-05T00:48:32.908Z,88747.00
2023-05-05T00:49:32.946Z,88747.00
2023-05-05T00:50:32.867Z,88745.00
2023-05-05T00:51:32.972Z,88745.00
2023-05-05T00:52:32.940Z,88744.00
2023-05-05T00:53:32.978Z,88744.00
2023-05-05T00:54:33.016Z,88745.00
2023-05-05T00:55:33.052Z,88747.00
2023-05-05T00:56:33.080Z,88745.00
2023-05-05T00:57:33.146Z,88742.00
2023-05-05T00:58:33.152Z,88742.00
2023-05-05T00:59:33.170Z,88742.00
2023-05-05T01:00:33.246Z,88740.00
2023-05-05T01:01:33.251Z,88740.00
2023-05-05T01:02:33.335Z,88740.00
2023-05-05T01:03:33.466Z,88738.00
2023-05-05T01:04:33.331Z,88736.00
2023-05-05T01:05:33.380Z,88738.00
2023-05-05T01:06:33.404Z,88736.00
2023-05-05T01:07:33.440Z,88738.00
2023-05-05T01:08:33.489Z,88738.00
2023-05-05T01:09:33.473Z,88736.00
2023-05-05T01:10:33.515Z,88734.00
2023-05-05T01:11:33.550Z,88736.00
2023-05-05T01:12:33.604Z,88736.00
2023-05-05T01:13:33.612Z,88736.00
2023-05-05T01:14:33.654Z,88734.00
2023-05-05T01:15:33.658Z,88732.00
2023-05-05T01:16:33.746Z,88732.00
2023-05-05T01:17:33.776Z,88734.00
2023-05-05T01:18:33.768Z,88732.00
2023-05-05T01:19:33.791Z,88736.00
2023-05-05T01:20:33.809Z,88738.00
2023-05-05T01:21:33.847Z,88736.00
2023-05-05T01:22:33.907Z,88738.00
2023-05-05T01:23:33.905Z,88738.00
2023-05-05T01:24:33.944Z,88734.00
2023-05-05T01:25:33.977Z,88734.00
2023-05-05T01:26:34.013Z,88736.00
2023-05-05T01:27:34.081Z,88732.00
2023-05-05T01:28:34.082Z,88730.00
2023-05-05T01:29:34.096Z,88734.00
2023-05-05T01:30:34.146Z,88734.00
2023-05-05T01:31:34.163Z,88736.00
2023-05-05T01:32:34.261Z,88736.00
2023-05-05T01:33:34.217Z,88734.00
2023-05-05T01:34:34.263Z,88734.00
2023-05-05T01:35:34.265Z,88732.00
2023-05-05T01:36:34.317Z,88734.00
2023-05-05T01:37:34.338Z,88734.00
2023-05-05T01:38:34.369Z,88732.00
2023-05-05T01:39:34.409Z,88734.00
2023-05-05T01:40:34.447Z,88730.00
2023-05-05T01:41:34.453Z,88736.00
2023-05-05T01:42:34.442Z,88732.00
2023-05-05T01:43:34.391Z,88732.00
2023-05-05T01:44:34.359Z,88736.00
2023-05-05T01:45:34.387Z,88738.00
2023-05-05T01:46:34.316Z,88738.00
2023-05-05T01:47:34.322Z,88740.00
2023-05-05T01:48:34.254Z,88738.00
2023-05-05T01:49:34.203Z,88738.00
2023-05-05T01:50:34.175Z,88742.00
2023-05-05T01:51:34.167Z,88742.00
2023-05-05T01:52:34.119Z,88744.00
2023-05-05T01:53:34.079Z,88744.00
2023-05-05T01:54:34.051Z,88742.00
2023-05-05T01:55:34.019Z,88744.00
2023-05-05T01:56:33.991Z,88747.00
2023-05-05T01:57:33.992Z,88749.00
2023-05-05T01:58:33.973Z,88747.00
2023-05-05T01:59:33.935Z,88747.00
2023-05-05T02:00:33.893Z,88749.00
2023-05-05T02:01:33.928Z,88749.00
2023-05-05T02:02:33.967Z,88751.00
2023-05-05T02:03:34.045Z,88747.00
2023-05-05T02:04:34.004Z,88747.00
2023-05-05T02:05:34.037Z,88747.00
2023-05-05T02:06:34.053Z,88749.00
2023-05-05T02:07:34.104Z,88749.00
2023-05-05T02:08:34.134Z,88747.00
2023-05-05T02:09:34.175Z,88745.00
2023-05-05T02:10:34.186Z,88745.00
2023-05-05T02:11:34.214Z,88745.00
2023-05-05T02:12:34.297Z,88745.00
2023-05-05T02:13:34.328Z,88747.00
2023-05-05T02:14:34.322Z,88747.00
2023-05-05T02:15:34.375Z,88745.00
2023-05-05T02:16:34.385Z,88747.00
2023-05-05T02:17:34.488Z,88745.00
2023-05-05T02:18:34.449Z,88747.00
2023-05-05T02:19:34.485Z,88751.00
2023-05-05T02:20:34.524Z,88749.00
2023-05-05T02:21:34.561Z,88749.00
2023-05-05T02:22:34.614Z,88747.00
2023-05-05T02:23:34.663Z,88749.00
2023-05-05T02:24:34.704Z,88749.00
2023-05-05T02:25:34.719Z,88747.00
2023-05-05T02:26:34.764Z,88751.00
2023-05-05T02:27:34.796Z,88751.00
2023-05-05T02:28:34.835Z,88749.00
2023-05-05T02:29:34.879Z,88751.00
2023-05-05T02:30:34.903Z,88747.00
2023-05-05T02:31:34.958Z,88751.00
2023-05-05T02:32:35.016Z,88749.00
2023-05-05T02:33:35.008Z,88751.00
2023-05-05T02:34:35.038Z,88751.00
2023-05-05T02:35:35.076Z,88749.00
2023-05-05T02:36:35.126Z,88749.00
2023-05-05T02:37:35.167Z,88751.00
2023-05-05T02:38:35.206Z,88749.00
2023-05-05T02:39:35.260Z,88751.00
2023-05-05T02:40:35.272Z,88751.00
2023-05-05T02:41:35.357Z,88751.00
2023-05-05T02:42:35.364Z,88753.00
2023-05-05T02:43:35.380Z,88751.00
2023-05-05T02:44:35.426Z,88745.00
2023-05-05T02:45:35.455Z,88745.00
2023-05-05T02:46:35.516Z,88749.00
2023-05-05T02:47:35.600Z,88745.00
2023-05-05T02:48:35.576Z,88747.00
2023-05-05T02:49:35.608Z,88749.00
2023-05-05T02:50:35.657Z,88749.00
2023-05-05T02:51:35.676Z,88751.00
2023-05-05T02:52:35.728Z,88751.00
2023-05-05T02:53:35.748Z,88749.00
2023-05-05T02:54:35.801Z,88749.00
2023-05-05T02:55:35.845Z,88751.00
2023-05-05T02:56:35.869Z,88749.00
2023-05-05T02:57:35.909Z,88751.00
2023-05-05T02:58:35.944Z,88751.00
2023-05-05T02:59:35.915Z,88753.00
2023-05-05T03:00:35.894Z,88749.00
2023-05-05T03:01:35.937Z,88747.00
2023-05-05T03:02:35.925Z,88751.00
2023-05-05T03:03:35.929Z,88749.00
2023-05-05T03:04:35.818Z,88749.00
2023-05-05T03:05:35.826Z,88749.00
2023-05-05T03:06:35.797Z,88751.00
2023-05-05T03:07:35.781Z,88749.00
2023-05-05T03:08:35.745Z,88749.00
2023-05-05T03:09:35.727Z,88749.00
2023-05-05T03:10:35.715Z,88749.00
2023-05-05T03:11:35.698Z,88749.00
2023-05-05T03:12:35.681Z,88751.00
2023-05-05T03:13:35.652Z,88751.00
2023-05-05T03:14:35.621Z,88747.00
2023-05-05T03:15:35.605Z,88749.00
2023-05-05T03:16:35.672Z,88749.00
2023-05-05T03:17:35.723Z,88747.00
2023-05-05T03:18:35.750Z,88747.00
2023-05-05T03:19:35.768Z,88747.00
2023-05-05T03:20:35.809Z,88744.00
2023-05-05T03:21:35.836Z,88745.00
2023-05-05T03:22:35.872Z,88740.00
2023-05-05T03:23:35.910Z,88740.00
2023-05-05T03:24:36.048Z,88742.00
2023-05-05T03:25:35.986Z,88740.00
2023-05-05T03:26:36.046Z,88742.00
2023-05-05T03:27:36.085Z,88742.00
2023-05-05T03:28:36.127Z,88738.00
2023-05-05T03:29:36.160Z,88738.00
2023-05-05T03:30:36.213Z,88740.00
2023-05-05T03:31:36.278Z,88740.00
2023-05-05T03:32:36.353Z,88738.00
2023-05-05T03:33:36.337Z,88738.00
2023-05-05T03:34:36.400Z,88738.00
2023-05-05T03:35:36.440Z,88740.00
2023-05-05T03:36:36.487Z,88740.00
2023-05-05T03:37:36.516Z,88736.00
2023-05-05T03:38:36.560Z,88738.00
2023-05-05T03:39:36.591Z,88738.00
2023-05-05T03:40:43.406Z,88740.00
2023-05-05T03:41:37.608Z,88740.00
2023-05-05T03:42:36.592Z,88742.00
2023-05-05T03:43:36.553Z,88744.00
2023-05-05T03:44:36.540Z,88744.00
2023-05-05T03:45:36.533Z,88745.00
2023-05-05T03:46:36.491Z,88740.00
2023-05-05T03:47:36.495Z,88742.00
2023-05-05T03:48:36.428Z,88740.00
2023-05-05T03:49:36.394Z,88738.00
2023-05-05T03:50:36.419Z,88740.00
2023-05-05T03:51:36.442Z,88734.00
2023-05-05T03:52:36.484Z,88732.00
2023-05-05T03:53:36.534Z,88736.00
2023-05-05T03:54:36.568Z,88736.00
2023-05-05T03:55:36.614Z,88736.00
2023-05-05T03:56:36.655Z,88734.00
2023-05-05T03:57:36.688Z,88736.00
2023-05-05T03:58:36.738Z,88736.00
2023-05-05T03:59:36.765Z,88736.00
2023-05-05T04:00:36.814Z,88738.00
2023-05-05T04:01:36.862Z,88734.00
2023-05-05T04:02:36.958Z,88736.00
2023-05-05T04:03:37.005Z,88730.00
2023-05-05T04:04:36.967Z,88732.00
2023-05-05T04:05:37.021Z,88730.00
2023-05-05T04:06:37.060Z,88723.00
2023-05-05T04:07:37.107Z,88732.00
2023-05-05T04:08:37.146Z,88732.00
2023-05-05T04:09:37.190Z,88734.00
2023-05-05T04:10:37.228Z,88732.00
2023-05-05T04:11:37.212Z,88732.00
2023-05-05T04:12:37.248Z,88732.00
2023-05-05T04:13:37.262Z,88732.00
2023-05-05T04:14:37.151Z,88736.00
2023-05-05T04:15:37.174Z,88736.00
2023-05-05T04:16:37.121Z,88740.00
2023-05-05T04:17:37.126Z,88738.00
2023-05-05T04:18:37.069Z,88736.00
2023-05-05T04:19:37.041Z,88740.00
2023-05-05T04:20:37.023Z,88738.00
2023-05-05T04:21:37.056Z,88738.00
2023-05-05T04:22:37.105Z,88738.00
2023-05-05T04:23:37.143Z,88738.00
2023-05-05T04:24:37.208Z,88742.00
2023-05-05T04:25:37.236Z,88740.00
2023-05-05T04:26:37.295Z,88740.00
2023-05-05T04:27:37.317Z,88740.00
2023-05-05T04:28:37.361Z,88740.00
2023-05-05T04:29:37.391Z,88742.00
2023-05-05T04:30:37.420Z,88745.00
2023-05-05T04:31:37.470Z,88745.00
2023-05-05T04:32:37.468Z,88745.00
2023-05-05T04:33:37.476Z,88744.00
2023-05-05T04:34:37.499Z,88742.00
2023-05-05T04:35:37.497Z,88744.00
2023-05-05T04:36:37.476Z,88740.00
2023-05-05T04:37:37.485Z,88740.00
2023-05-05T04:38:37.552Z,88740.00
2023-05-05T04:39:37.492Z,88740.00
2023-05-05T04:40:37.516Z,88742.00
2023-05-05T04:41:37.519Z,88740.00
2023-05-05T04:42:37.560Z,88738.00
2023-05-05T04:43:37.547Z,88738.00
2023-05-05T04:44:37.560Z,88738.00
2023-05-05T04:45:37.551Z,88738.00
2023-05-05T04:46:37.612Z,88738.00
2023-05-05T04:47:37.650Z,88736.00
2023-05-05T04:48:37.585Z,88740.00
2023-05-05T04:49:37.567Z,88736.00
2023-05-05T04:50:37.527Z,88736.00
2023-05-05T04:51:37.499Z,88736.00
2023-05-05T04:52:37.497Z,88736.00
2023-05-05T04:53:37.492Z,88736.00
2023-05-05T04:54:37.431Z,88734.00
2023-05-05T04:55:37.398Z,88734.00
2023-05-05T04:56:37.398Z,88734.00
2023-05-05T04:57:37.354Z,88734.00
2023-05-05T04:58:37.369Z,88740.00
2023-05-05T04:59:37.387Z,88738.00
2023-05-05T05:00:37.416Z,88740.00
2023-05-05T05:01:38.616Z,88740.00
2023-05-05T05:02:37.650Z,88740.00
2023-05-05T05:03:37.713Z,88740.00
2023-05-05T05:04:37.620Z,88742.00
2023-05-05T05:05:37.679Z,88745.00
2023-05-05T05:06:37.695Z,88745.00
2023-05-05T05:07:37.723Z,88745.00
2023-05-05T05:08:37.730Z,88745.00
2023-05-05T05:09:37.731Z,88744.00
2023-05-05T05:10:37.700Z,88745.00
2023-05-05T05:11:37.686Z,88745.00
2023-05-05T05:12:37.681Z,88744.00
2023-05-05T05:13:37.621Z,88744.00
2023-05-05T05:14:37.579Z,88745.00
2023-05-05T05:15:37.535Z,88747.00
2023-05-05T05:16:37.562Z,88744.00
2023-05-05T05:17:37.509Z,88742.00
2023-05-05T05:18:37.472Z,88742.00
2023-05-05T05:19:37.440Z,88742.00
2023-05-05T05:20:37.414Z,88744.00
2023-05-05T05:21:37.426Z,88744.00
2023-05-05T05:22:37.414Z,88742.00
2023-05-05T05:23:37.451Z,88742.00
2023-05-05T05:24:37.632Z,88742.00
2023-05-05T05:25:37.455Z,88744.00
2023-05-05T05:26:37.381Z,88744.00
2023-05-05T05:27:37.358Z,88742.00
2023-05-05T05:28:37.353Z,88744.00
2023-05-05T05:29:37.350Z,88742.00
2023-05-05T05:30:37.290Z,88742.00
2023-05-05T05:31:37.341Z,88744.00
2023-05-05T05:32:37.274Z,88742.00
2023-05-05T05:33:37.208Z,88744.00
2023-05-05T05:34:37.203Z,88742.00
2023-05-05T05:35:37.200Z,88742.00
2023-05-05T05:36:37.117Z,88744.00
2023-05-05T05:37:37.093Z,88742.00
2023-05-05T05:38:37.117Z,88744.00
2023-05-05T05:39:37.059Z,88742.00
2023-05-05T05:40:37.044Z,88744.00
2023-05-05T05:41:37.034Z,88742.00
2023-05-05T05:42:37.064Z,88744.00
2023-05-05T05:43:37.096Z,88742.00
2023-05-05T05:44:37.069Z,88742.00
2023-05-05T05:45:37.033Z,88740.00
2023-05-05T05:46:37.052Z,88742.00
2023-05-05T05:47:36.984Z,88740.00
2023-05-05T05:48:37.000Z,88738.00
2023-05-05T05:49:37.065Z,88738.00
2023-05-05T05:50:36.890Z,88740.00
2023-05-05T05:51:36.843Z,88736.00
2023-05-05T05:52:36.816Z,88738.00
2023-05-05T05:53:36.814Z,88738.00
2023-05-05T05:54:36.749Z,88736.00
2023-05-05T05:55:36.714Z,88738.00
2023-05-05T05:56:36.682Z,88738.00
2023-05-05T05:57:36.656Z,88736.00
2023-05-05T05:58:36.647Z,88736.00
2023-05-05T05:59:36.654Z,88736.00
2023-05-05T06:00:36.549Z,88736.00
2023-05-05T06:01:36.526Z,88736.00
2023-05-05T06:02:36.579Z,88736.00
2023-05-05T06:03:36.568Z,88734.00
2023-05-05T06:04:36.633Z,88736.00
2023-05-05T06:05:36.496Z,88730.00
2023-05-05T06:06:36.512Z,88732.00
2023-05-05T06:07:36.533Z,88730.00
2023-05-05T06:08:36.562Z,88723.00
2023-05-05T06:09:36.561Z,88723.00
2023-05-05T06:10:36.580Z,88723.00
2023-05-05T06:11:36.598Z,88723.00
2023-05-05T06:12:36.646Z,88723.00
2023-05-05T06:13:36.605Z,88721.00
2023-05-05T06:14:36.599Z,88717.00
2023-05-05T06:15:36.640Z,88719.00
2023-05-05T06:16:36.677Z,88717.00
2023-05-05T06:17:36.601Z,88721.00
2023-05-05T06:18:36.608Z,88715.00
2023-05-05T06:19:36.682Z,88715.00
2023-05-05T06:20:36.623Z,88711.00
2023-05-05T06:21:36.620Z,88713.00
2023-05-05T06:22:36.608Z,88711.00
2023-05-05T06:23:36.649Z,88713.00
2023-05-05T06:24:36.630Z,88713.00
2023-05-05T06:25:36.597Z,88711.00
2023-05-05T06:26:36.664Z,88711.00
2023-05-05T06:27:36.548Z,88711.00
2023-05-05T06:28:36.573Z,88707.00
2023-05-05T06:29:36.534Z,88705.00
2023-05-05T06:30:36.494Z,88705.00
2023-05-05T06:31:37.094Z,88707.00
2023-05-05T06:32:36.495Z,88701.00
2023-05-05T06:33:36.474Z,88703.00
2023-05-05T06:34:36.379Z,88705.00
2023-05-05T06:35:36.343Z,88701.00
2023-05-05T06:36:36.410Z,88701.00
2023-05-05T06:37:36.309Z,88699.00
2023-05-05T06:38:36.276Z,88701.00
2023-05-05T06:39:36.231Z,88701.00
2023-05-05T06:40:36.229Z,88699.00
2023-05-05T06:41:36.241Z,88699.00
2023-05-05T06:42:36.195Z,88701.00
2023-05-05T06:43:36.188Z,88701.00
2023-05-05T06:44:36.189Z,88699.00
2023-05-05T06:45:36.157Z,88701.00
2023-05-05T06:46:36.172Z,88697.00
2023-05-05T06:47:36.217Z,88697.00
2023-05-05T06:48:36.115Z,88699.00
2023-05-05T06:49:36.146Z,88701.00
2023-05-05T06:50:36.066Z,88697.00
2023-05-05T06:51:36.017Z,88697.00
2023-05-05T06:52:36.030Z,88697.00
2023-05-05T06:53:36.075Z,88697.00
2023-05-05T06:54:35.989Z,88697.00
2023-05-05T06:55:35.932Z,88699.00
2023-05-05T06:56:35.902Z,88699.00
2023-05-05T06:57:35.885Z,88699.00
2023-05-05T06:58:35.868Z,88699.00
2023-05-05T06:59:35.826Z,88699.00
2023-05-05T07:00:35.901Z,88699.00
2023-05-05T07:01:35.803Z,88701.00
2023-05-05T07:02:35.744Z,88699.00
2023-05-05T07:03:35.764Z,88697.00
2023-05-05T07:04:35.702Z,88695.00
2023-05-05T07:05:35.680Z,88697.00
2023-05-05T07:06:35.642Z,88693.00
2023-05-05T07:07:35.603Z,88693.00
2023-05-05T07:08:35.584Z,88691.00
2023-05-05T07:09:35.616Z,88699.00
2023-05-05T07:10:35.547Z,88695.00
2023-05-05T07:11:35.522Z,88697.00
2023-05-05T07:12:35.505Z,88695.00
2023-05-05T07:13:35.474Z,88695.00
2023-05-05T07:14:35.456Z,88695.00
2023-05-05T07:15:35.435Z,88695.00
2023-05-05T07:16:35.502Z,88697.00
2023-05-05T07:17:35.486Z,88693.00
2023-05-05T07:18:35.400Z,88695.00
2023-05-05T07:19:35.370Z,88693.00
2023-05-05T07:20:35.332Z,88691.00
2023-05-05T07:21:35.331Z,88693.00
2023-05-05T07:22:35.316Z,88691.00
2023-05-05T07:23:35.281Z,88693.00
2023-05-05T07:24:35.384Z,88693.00
2023-05-05T07:25:35.396Z,88691.00
2023-05-05T07:26:35.252Z,88683.00
2023-05-05T07:27:35.241Z,88687.00
2023-05-05T07:28:35.259Z,88685.00
2023-05-05T07:29:35.166Z,88685.00
2023-05-05T07:30:35.151Z,88683.00
2023-05-05T07:31:35.157Z,88683.00
2023-05-05T07:32:35.248Z,88685.00
2023-05-05T07:33:35.096Z,88677.00
2023-05-05T07:34:35.070Z,88679.00
2023-05-05T07:35:35.062Z,88681.00
2023-05-05T07:36:35.039Z,88679.00
2023-05-05T07:37:35.016Z,88679.00
2023-05-05T07:38:34.970Z,88677.00
2023-05-05T07:39:34.978Z,88674.00
2023-05-05T07:40:34.941Z,88676.00
2023-05-05T07:41:34.997Z,88672.00
2023-05-05T07:42:34.881Z,88674.00
2023-05-05T07:43:34.856Z,88672.00
2023-05-05T07:44:34.816Z,88674.00
2023-05-05T07:45:34.835Z,88672.00
2023-05-05T07:46:34.849Z,88664.00
2023-05-05T07:47:34.775Z,88668.00
2023-05-05T07:48:41.900Z,88666.00
2023-05-05T07:49:34.652Z,88664.00
2023-05-05T07:51:53.670Z,88662.00
2023-05-05T07:52:59.355Z,88660.00
2023-05-05T07:53:54.419Z,88658.00
2023-05-05T07:54:53.373Z,88656.00
2023-05-05T07:55:53.332Z,88652.00
2023-05-05T07:56:53.382Z,88652.00
2023-05-05T07:57:53.266Z,88652.00
2023-05-05T07:58:53.311Z,88650.00
2023-05-05T07:59:53.349Z,88652.00
2023-05-05T08:00:53.230Z,88650.00
2023-05-05T08:01:54.947Z,88650.00
2023-05-05T08:02:53.257Z,88644.00
2023-05-05T08:03:53.174Z,88646.00
2023-05-05T08:04:53.092Z,88646.00
2023-05-05T08:05:53.070Z,88650.00
2023-05-05T08:06:53.049Z,88646.00
2023-05-05T08:07:53.018Z,88646.00
2023-05-05T08:08:52.991Z,88640.00
2023-05-05T08:09:52.950Z,88640.00
2023-05-05T08:10:53.010Z,88642.00
2023-05-05T08:11:52.977Z,88642.00
2023-05-05T08:12:53.200Z,88636.00
2023-05-05T08:13:53.021Z,88646.00
2023-05-05T08:14:53.056Z,88642.00
2023-05-05T08:15:53.116Z,88642.00
2023-05-05T08:16:53.125Z,88640.00
2023-05-05T08:17:53.118Z,88638.00
2023-05-05T08:18:53.172Z,88640.00
2023-05-05T08:19:53.137Z,88638.00
2023-05-05T08:20:53.059Z,88636.00
2023-05-05T08:21:52.999Z,88634.00
2023-05-05T08:22:52.992Z,88630.00
2023-05-05T08:23:52.972Z,88632.00
2023-05-05T08:24:52.964Z,88632.00
2023-05-05T08:25:52.910Z,88628.00
2023-05-05T08:26:52.888Z,88632.00
2023-05-05T08:27:52.866Z,88630.00
2023-05-05T08:28:52.908Z,88628.00
2023-05-05T08:29:52.815Z,88632.00
2023-05-05T08:30:52.871Z,88632.00
2023-05-05T08:31:52.798Z,88630.00
2023-05-05T08:32:52.906Z,88630.00
2023-05-05T08:33:52.747Z,88632.00
2023-05-05T08:34:52.677Z,88630.00
2023-05-05T08:35:52.629Z,88628.00
2023-05-05T08:36:52.603Z,88628.00
2023-05-05T08:37:52.600Z,88626.00
2023-05-05T08:38:52.548Z,88622.00
2023-05-05T08:39:52.647Z,88621.00
2023-05-05T08:40:52.513Z,88621.00
2023-05-05T08:41:52.480Z,88622.00
2023-05-05T08:42:52.444Z,88621.00
2023-05-05T08:43:52.417Z,88617.00
2023-05-05T08:44:52.555Z,88619.00
2023-05-05T08:45:52.433Z,88619.00
2023-05-05T08:46:52.449Z,88617.00
2023-05-05T08:47:52.375Z,88615.00
2023-05-05T08:48:52.285Z,88617.00
2023-05-05T08:49:52.251Z,88611.00
2023-05-05T08:50:52.321Z,88609.00
2023-05-05T08:51:52.206Z,88611.00
2023-05-05T08:52:52.196Z,88611.00
2023-05-05T08:53:52.212Z,88613.00
2023-05-05T08:54:52.088Z,88609.00
2023-05-05T08:55:52.060Z,88615.00
2023-05-05T08:56:52.090Z,88613.00
2023-05-05T08:57:51.990Z,88615.00
2023-05-05T08:58:51.990Z,88617.00
2023-05-05T08:59:51.962Z,88613.00
2023-05-05T09:00:52.187Z,88615.00
2023-05-05T09:01:51.899Z,88613.00
2023-05-05T09:02:52.056Z,88613.00
2023-05-05T09:03:52.702Z,88615.00
2023-05-05T09:04:51.840Z,88613.00
2023-05-05T09:05:51.827Z,88613.00
2023-05-05T09:06:51.762Z,88613.00
2023-05-05T09:07:51.728Z,88613.00
2023-05-05T09:08:51.719Z,88607.00
2023-05-05T09:09:51.671Z,88609.00
2023-05-05T09:10:51.641Z,88609.00
2023-05-05T09:11:51.682Z,88605.00
2023-05-05T09:12:51.722Z,88607.00
2023-05-05T09:13:51.622Z,88605.00
2023-05-05T09:14:51.500Z,88601.00
2023-05-05T09:15:51.471Z,88601.00
2023-05-05T09:16:51.552Z,88601.00
2023-05-05T09:17:51.489Z,88603.00
2023-05-05T09:18:51.377Z,88601.00
2023-05-05T09:19:51.341Z,88599.00
2023-05-05T09:20:51.312Z,88595.00
2023-05-05T09:21:51.281Z,88595.00
2023-05-05T09:22:51.248Z,88593.00
2023-05-05T09:23:51.211Z,88595.00
2023-05-05T09:24:51.184Z,88595.00
2023-05-05T09:25:51.174Z,88595.00
2023-05-05T09:26:51.143Z,88595.00
2023-05-05T09:27:51.126Z,88593.00
2023-05-05T09:28:51.084Z,88595.00
2023-05-05T09:29:51.060Z,88595.00
2023-05-05T09:30:51.093Z,88595.00
2023-05-05T09:31:51.001Z,88593.00
2023-05-05T09:32:51.219Z,88597.00
2023-05-05T09:33:50.930Z,88595.00
2023-05-05T09:34:50.955Z,88591.00
2023-05-05T09:35:50.890Z,88591.00
2023-05-05T09:36:50.861Z,88591.00
2023-05-05T09:37:50.907Z,88593.00
2023-05-05T09:38:50.910Z,88591.00
2023-05-05T09:39:50.814Z,88591.00
2023-05-05T09:40:50.737Z,88589.00
2023-05-05T09:41:50.706Z,88587.00
2023-05-05T09:42:50.705Z,88587.00
2023-05-05T09:43:50.735Z,88589.00
2023-05-05T09:44:50.617Z,88593.00
2023-05-05T09:45:50.591Z,88591.00
2023-05-05T09:46:50.952Z,88589.00
2023-05-05T09:47:50.592Z,88587.00
2023-05-05T09:48:50.648Z,88587.00
2023-05-05T09:49:50.473Z,88587.00
2023-05-05T09:50:50.482Z,88585.00
2023-05-05T09:51:50.506Z,88587.00
2023-05-05T09:52:50.526Z,88587.00
2023-05-05T09:53:50.602Z,88587.00
2023-05-05T09:54:50.627Z,88587.00
2023-05-05T09:55:50.729Z,88587.00
2023-05-05T09:56:50.794Z,88589.00
2023-05-05T09:57:50.736Z,88587.00
2023-05-05T09:58:50.727Z,88585.00
2023-05-05T09:59:50.689Z,88587.00
2023-05-05T10:00:50.668Z,88585.00
2023-05-05T10:01:50.763Z,88585.00
2023-05-05T10:02:50.649Z,88583.00
2023-05-05T10:03:50.567Z,88583.00
2023-05-05T10:04:50.654Z,88581.00
2023-05-05T10:05:50.576Z,88581.00
2023-05-05T10:06:50.483Z,88581.00
2023-05-05T10:07:50.453Z,88581.00
2023-05-05T10:08:50.465Z,88583.00
2023-05-05T10:09:50.501Z,88581.00
2023-05-05T10:10:50.553Z,88581.00
2023-05-05T10:11:50.552Z,88577.00
2023-05-05T10:12:50.574Z,88577.00
2023-05-05T10:13:50.591Z,88575.00
2023-05-05T10:14:50.677Z,88575.00
2023-05-05T10:15:53.255Z,88573.00
2023-05-05T10:16:50.524Z,88573.00
2023-05-05T10:18:02.286Z,88571.00
2023-05-05T10:18:51.485Z,88569.00
2023-05-05T10:19:50.533Z,88569.00
2023-05-05T10:20:50.491Z,88567.00
2023-05-05T10:21:50.365Z,88566.00
2023-05-05T10:22:50.292Z,88564.00
2023-05-05T10:23:50.271Z,88564.00
2023-05-05T10:24:50.234Z,88562.00
2023-05-05T10:25:50.191Z,88562.00
2023-05-05T10:26:50.268Z,88558.00
2023-05-05T10:27:50.167Z,88558.00
2023-05-05T10:28:50.101Z,88556.00
2023-05-05T10:29:50.112Z,88558.00
2023-05-05T10:30:50.141Z,88556.00
2023-05-05T10:31:50.115Z,88558.00
2023-05-05T10:32:56.066Z,88556.00
2023-05-05T10:33:51.097Z,88554.00
2023-05-05T10:34:50.003Z,88554.00
2023-05-05T10:35:49.976Z,88552.00
2023-05-05T10:36:50.058Z,88546.00
2023-05-05T10:37:49.894Z,88550.00
2023-05-05T10:38:49.891Z,88554.00
2023-05-05T10:39:49.828Z,88546.00
2023-05-05T10:40:49.808Z,88544.00
2023-05-05T10:41:49.763Z,88540.00
2023-05-05T10:42:49.726Z,88540.00
2023-05-05T10:43:49.699Z,88542.00
2023-05-05T10:44:49.684Z,88542.00
2023-05-05T10:45:49.684Z,88538.00
2023-05-05T10:46:49.618Z,88540.00
2023-05-05T10:47:49.701Z,88536.00
2023-05-05T10:48:49.673Z,88536.00
2023-05-05T10:49:49.679Z,88534.00
2023-05-05T10:50:49.683Z,88530.00
2023-05-05T10:51:49.678Z,88528.00
2023-05-05T10:52:49.696Z,88524.00
2023-05-05T10:53:49.695Z,88524.00
2023-05-05T10:54:49.618Z,88528.00
2023-05-05T10:55:49.603Z,88526.00
2023-05-05T10:56:49.555Z,88524.00
2023-05-05T10:57:49.520Z,88522.00
2023-05-05T10:58:59.851Z,88516.00
2023-05-05T10:59:50.447Z,88514.00
2023-05-05T11:00:49.447Z,88514.00
2023-05-05T11:01:49.455Z,88511.00
2023-05-05T11:02:49.360Z,88511.00
2023-05-05T11:03:49.330Z,88509.00
2023-05-05T11:04:49.228Z,88509.00
2023-05-05T11:05:49.191Z,88505.00
2023-05-05T11:06:49.165Z,88505.00
2023-05-05T11:07:49.153Z,88503.00
2023-05-05T11:08:49.124Z,88503.00
2023-05-05T11:09:49.022Z,88503.00
2023-05-05T11:10:49.025Z,88497.00
2023-05-05T11:11:48.954Z,88497.00
2023-05-05T11:12:48.943Z,88497.00
2023-05-05T11:13:48.887Z,88495.00
2023-05-05T11:14:48.860Z,88493.00
2023-05-05T11:15:48.761Z,88491.00
2023-05-05T11:16:48.770Z,88489.00
2023-05-05T11:17:48.840Z,88487.00
2023-05-05T11:18:48.645Z,88491.00
2023-05-05T11:19:48.667Z,88485.00
2023-05-05T11:20:48.638Z,88483.00
2023-05-05T11:21:48.523Z,88483.00
2023-05-05T11:22:48.513Z,88479.00
2023-05-05T11:23:48.479Z,88479.00
2023-05-05T11:24:48.468Z,88479.00
2023-05-05T11:25:48.385Z,88477.00
2023-05-05T11:26:48.318Z,88477.00
2023-05-05T11:27:48.295Z,88477.00
2023-05-05T11:28:48.276Z,88477.00
2023-05-05T11:29:50.253Z,88477.00
2023-05-05T11:30:48.201Z,88475.00
2023-05-05T11:31:48.132Z,88481.00
2023-05-05T11:32:48.154Z,88477.00
2023-05-05T11:33:48.085Z,88479.00
2023-05-05T11:34:48.002Z,88473.00
2023-05-05T11:35:48.035Z,88477.00
2023-05-05T11:36:47.937Z,88477.00
2023-05-05T11:37:47.909Z,88473.00
2023-05-05T11:38:47.870Z,88466.00
2023-05-05T11:39:47.830Z,88466.00
2023-05-05T11:40:47.769Z,88466.00
2023-05-05T11:41:47.749Z,88464.00
2023-05-05T11:42:47.699Z,88462.00
2023-05-05T11:43:47.666Z,88462.00
2023-05-05T11:44:47.631Z,88460.00
2023-05-05T11:45:47.595Z,88458.00